Time;durP1;ratioP1;P1;durP2;ratioP2;P2;SDS_P1;SDS_P2;PMS_P1;PMS_P2;Temp;Humidity;BMP_temperature;BMP_pressure;BME280_temperature;BME280_humidity;BME280_pressure;Samples;Min_cycle;Max_cycle;Signal;HPM_P1;HPM_P2
2021/08/30 00:00:44;;;;;;;19.60;16.83;;;16.80;99.90;;;;;;5127551;27;20315;-36
2021/08/30 00:03:10;;;;;;;19.60;17.30;;;16.80;99.90;;;;;;5122790;27;20191;-36
2021/08/30 00:05:36;;;;;;;19.67;16.00;;;16.70;99.90;;;;;;5122184;27;20689;-36
2021/08/30 00:08:04;;;;;;;18.40;15.87;;;16.70;99.90;;;;;;5124058;27;20576;-36
2021/08/30 00:10:29;;;;;;;16.67;14.90;;;16.70;99.90;;;;;;5127607;27;20187;-36
2021/08/30 00:12:55;;;;;;;17.87;15.80;;;16.70;99.90;;;;;;5127382;27;20451;-37
2021/08/30 00:15:21;;;;;;;17.80;15.77;;;16.70;99.90;;;;;;5108337;27;20205;-36
2021/08/30 00:17:47;;;;;;;18.33;16.43;;;16.70;99.90;;;;;;5104916;28;20605;-37
2021/08/30 00:20:16;;;;;;;17.30;15.20;;;16.70;99.90;;;;;;5096843;27;20472;-36
2021/08/30 00:22:43;;;;;;;17.37;15.20;;;16.70;99.90;;;;;;5119781;27;20191;-36
2021/08/30 00:25:10;;;;;;;19.03;16.90;;;16.70;99.90;;;;;;5127250;27;20511;-36
2021/08/30 00:27:35;;;;;;;19.10;16.30;;;16.70;99.90;;;;;;5127181;27;20416;-36
2021/08/30 00:30:01;;;;;;;19.20;15.60;;;16.70;99.90;;;;;;5127279;27;20419;-36
2021/08/30 00:32:27;;;;;;;18.97;16.27;;;16.70;99.90;;;;;;5127298;27;20569;-36
2021/08/30 00:34:52;;;;;;;18.60;15.17;;;16.70;99.90;;;;;;5117566;27;20231;-37
2021/08/30 00:37:18;;;;;;;19.97;15.40;;;16.70;99.90;;;;;;5126862;27;20331;-36
2021/08/30 00:39:45;;;;;;;17.53;15.57;;;16.70;99.90;;;;;;5127056;27;20198;-36
2021/08/30 00:42:12;;;;;;;19.87;15.70;;;16.70;99.90;;;;;;5126321;27;20187;-36
2021/08/30 00:44:37;;;;;;;20.03;16.70;;;16.70;99.90;;;;;;5127263;27;20428;-37
2021/08/30 00:47:03;;;;;;;19.50;16.07;;;16.70;99.90;;;;;;5126213;27;20423;-36
2021/08/30 00:49:29;;;;;;;18.10;15.47;;;16.70;99.90;;;;;;5118520;27;20286;-36
2021/08/30 00:51:55;;;;;;;16.90;14.73;;;16.70;99.90;;;;;;5126686;27;20325;-36
2021/08/30 00:54:21;;;;;;;19.00;16.50;;;16.70;99.90;;;;;;5127078;27;20194;-37
2021/08/30 00:56:48;;;;;;;17.30;15.50;;;16.70;99.90;;;;;;5126442;27;20436;-36
2021/08/30 00:59:14;;;;;;;17.27;14.77;;;16.70;99.90;;;;;;5126687;27;20608;-36
2021/08/30 01:01:41;;;;;;;18.20;16.20;;;16.70;99.90;;;;;;5127022;27;20417;-36
2021/08/30 01:04:08;;;;;;;21.23;17.37;;;16.70;99.90;;;;;;5117652;27;20943;-36
2021/08/30 01:06:48;;;;;;;19.43;16.80;;;16.60;99.90;;;;;;5125427;27;20732;-36
2021/08/30 01:09:51;;;;;;;21.00;17.20;;;16.60;99.90;;;;;;5120896;27;20464;-36
2021/08/30 01:12:23;;;;;;;19.20;16.40;;;16.60;99.90;;;;;;5126455;27;20427;-36
2021/08/30 01:14:58;;;;;;;19.17;15.73;;;16.60;99.90;;;;;;5112577;28;20441;-36
2021/08/30 01:17:25;;;;;;;21.30;16.57;;;16.60;99.90;;;;;;5103753;28;20513;-37
2021/08/30 01:20:04;;;;;;;18.00;16.10;;;16.50;99.90;;;;;;5107366;28;20473;-36
2021/08/30 01:22:32;;;;;;;23.40;15.70;;;16.60;99.90;;;;;;5126491;28;20435;-37
2021/08/30 01:25:00;;;;;;;26.53;16.47;;;16.60;99.90;;;;;;5109258;28;20413;-37
2021/08/30 01:27:28;;;;;;;18.00;15.30;;;16.50;99.90;;;;;;5110489;28;20423;-36
2021/08/30 01:30:06;;;;;;;21.00;16.60;;;16.50;99.90;;;;;;5126514;28;20446;-36
2021/08/30 01:32:41;;;;;;;19.23;16.33;;;16.60;99.90;;;;;;5107923;28;20431;-37
2021/08/30 01:35:10;;;;;;;21.37;15.60;;;16.60;99.90;;;;;;5112748;28;20421;-36
2021/08/30 01:37:39;;;;;;;22.37;17.67;;;16.60;99.90;;;;;;5123472;28;20493;-36
2021/08/30 01:40:08;;;;;;;19.60;15.93;;;16.60;99.90;;;;;;5114723;28;20487;-36
2021/08/30 01:42:36;;;;;;;20.23;16.90;;;16.50;99.90;;;;;;5115803;28;20421;-36
2021/08/30 01:45:08;;;;;;;18.40;16.10;;;16.50;99.90;;;;;;5126327;28;20504;-37
2021/08/30 01:47:35;;;;;;;18.00;15.70;;;16.50;99.90;;;;;;5125721;28;20986;-36
2021/08/30 01:50:03;;;;;;;17.13;15.10;;;16.50;99.90;;;;;;5117511;28;20490;-36
2021/08/30 01:52:35;;;;;;;17.50;15.80;;;16.50;99.90;;;;;;5124352;27;20435;-36
2021/08/30 01:55:47;;;;;;;18.43;15.53;;;16.40;99.90;;;;;;5129186;27;20424;-37
2021/08/30 02:00:44;;;;;;;19.00;14.27;;;16.50;99.90;;;;;;5129885;27;20513;-36
2021/08/30 02:03:20;;;;;;;18.40;15.50;;;16.50;99.90;;;;;;5130748;27;20420;-36
2021/08/30 02:05:54;;;;;;;19.27;16.80;;;16.40;99.90;;;;;;5119746;27;20471;-36
2021/08/30 02:08:24;;;;;;;18.83;15.67;;;16.40;99.90;;;;;;5129857;27;20443;-36
2021/08/30 02:10:54;;;;;;;16.23;14.30;;;16.40;99.90;;;;;;5130333;27;20424;-36
2021/08/30 02:13:23;;;;;;;18.03;15.53;;;16.40;99.90;;;;;;5128513;27;20448;-36
2021/08/30 02:15:49;;;;;;;18.90;16.17;;;16.40;99.90;;;;;;5108785;28;20433;-37
2021/08/30 02:18:24;;;;;;;17.50;14.77;;;16.30;99.90;;;;;;5107521;28;20426;-36
2021/08/30 02:21:11;;;;;;;19.13;16.80;;;16.40;99.90;;;;;;5117335;27;20460;-36
2021/08/30 02:23:53;;;;;;;19.53;15.10;;;16.40;99.90;;;;;;5129753;27;20695;-36
2021/08/30 02:26:24;;;;;;;20.57;15.40;;;16.40;99.90;;;;;;5128770;27;20514;-36
2021/08/30 02:28:51;;;;;;;17.23;14.63;;;16.40;99.90;;;;;;5129857;27;20456;-36
2021/08/30 02:31:18;;;;;;;19.33;16.20;;;16.40;99.90;;;;;;5129638;27;20483;-37
2021/08/30 02:33:44;;;;;;;18.13;16.23;;;16.30;99.90;;;;;;5129834;27;20461;-36
2021/08/30 02:36:12;;;;;;;19.37;16.47;;;16.30;99.90;;;;;;5115871;27;20457;-36
2021/08/30 02:38:40;;;;;;;19.73;16.27;;;16.30;99.90;;;;;;5127734;27;20421;-36
2021/08/30 02:41:08;;;;;;;20.70;15.77;;;16.30;99.90;;;;;;5129244;27;20990;-37
2021/08/30 02:43:34;;;;;;;16.70;14.57;;;16.30;99.90;;;;;;5129597;27;20424;-37
2021/08/30 02:46:00;;;;;;;17.33;14.97;;;16.30;99.90;;;;;;5128757;27;20428;-36
2021/08/30 02:48:28;;;;;;;22.30;16.10;;;16.30;99.90;;;;;;5129318;27;21158;-36
2021/08/30 02:50:55;;;;;;;21.80;16.90;;;16.20;99.90;;;;;;5118949;27;20529;-37
2021/08/30 02:53:23;;;;;;;19.07;16.40;;;16.20;99.90;;;;;;5128671;27;20794;-36
2021/08/30 02:55:51;;;;;;;21.67;16.90;;;16.20;99.90;;;;;;5128609;27;20428;-37
2021/08/30 02:58:17;;;;;;;18.53;15.50;;;16.20;99.90;;;;;;5128931;27;20429;-36
2021/08/30 03:00:43;;;;;;;20.67;17.43;;;16.20;99.90;;;;;;5111150;27;20461;-36
2021/08/30 03:03:09;;;;;;;22.03;16.03;;;16.20;99.90;;;;;;5108691;28;20424;-37
2021/08/30 03:05:37;;;;;;;20.43;15.90;;;16.20;99.90;;;;;;5109694;27;20692;-36
2021/08/30 03:08:03;;;;;;;20.67;16.53;;;16.20;99.90;;;;;;5128223;27;20432;-36
2021/08/30 03:10:29;;;;;;;20.40;16.53;;;16.20;99.90;;;;;;5129206;27;20481;-37
2021/08/30 03:12:59;;;;;;;19.17;17.13;;;16.20;99.90;;;;;;5128745;27;20706;-36
2021/08/30 03:15:26;;;;;;;17.43;15.60;;;16.20;99.90;;;;;;5110222;27;20771;-37
2021/08/30 03:17:52;;;;;;;18.07;15.60;;;16.20;99.90;;;;;;5106080;28;20429;-36
2021/08/30 03:20:22;;;;;;;20.37;15.57;;;16.20;99.90;;;;;;5108837;27;20480;-37
2021/08/30 03:22:50;;;;;;;19.47;15.33;;;16.20;99.90;;;;;;5128764;27;20848;-36
2021/08/30 03:25:17;;;;;;;17.63;15.40;;;16.20;99.90;;;;;;5128244;27;20428;-36
2021/08/30 03:27:45;;;;;;;22.97;16.53;;;16.20;99.90;;;;;;5128186;27;20584;-37
2021/08/30 03:30:12;;;;;;;19.50;16.80;;;16.20;99.90;;;;;;5128408;27;21137;-36
2021/08/30 03:32:38;;;;;;;16.50;14.83;;;16.10;99.90;;;;;;5110174;27;20978;-36
2021/08/30 03:35:05;;;;;;;16.67;15.00;;;16.20;99.90;;;;;;5119985;27;20434;-38
2021/08/30 03:37:31;;;;;;;18.33;16.43;;;16.20;99.90;;;;;;5121191;27;20433;-37
2021/08/30 03:39:58;;;;;;;20.70;16.97;;;16.20;99.90;;;;;;5127887;27;20714;-36
2021/08/30 03:42:25;;;;;;;17.37;15.67;;;16.10;99.90;;;;;;5128191;27;20431;-36
2021/08/30 03:44:52;;;;;;;18.07;16.17;;;16.20;99.90;;;;;;5128064;27;20424;-36
2021/08/30 03:47:19;;;;;;;17.57;15.33;;;16.10;99.90;;;;;;5127919;27;20473;-36
2021/08/30 03:49:45;;;;;;;17.90;15.70;;;16.10;99.90;;;;;;5124388;27;20593;-36
2021/08/30 03:52:12;;;;;;;22.60;17.83;;;16.10;99.90;;;;;;5116867;27;20459;-36
2021/08/30 03:54:38;;;;;;;19.03;16.23;;;16.10;99.90;;;;;;5119526;27;20439;-36
2021/08/30 03:57:04;;;;;;;20.23;17.07;;;16.10;99.90;;;;;;5106769;28;20515;-36
2021/08/30 03:59:33;;;;;;;23.00;18.60;;;16.10;99.90;;;;;;5120803;27;20276;-36
2021/08/30 04:02:00;;;;;;;20.57;17.30;;;16.10;99.90;;;;;;5127839;27;20424;-36
2021/08/30 04:04:26;;;;;;;20.97;16.73;;;16.10;99.90;;;;;;5127616;27;20453;-36
2021/08/30 04:06:55;;;;;;;19.53;17.13;;;16.10;99.90;;;;;;5116893;27;20822;-36
2021/08/30 04:09:21;;;;;;;22.87;18.07;;;16.10;99.90;;;;;;5127570;27;20539;-36
2021/08/30 04:11:48;;;;;;;21.10;18.63;;;16.00;99.90;;;;;;5127625;27;20421;-36
2021/08/30 04:14:15;;;;;;;19.53;17.47;;;16.00;99.90;;;;;;5118140;27;20791;-37
2021/08/30 04:16:42;;;;;;;20.87;17.23;;;16.00;99.90;;;;;;5103775;28;20437;-36
2021/08/30 04:19:07;;;;;;;21.17;18.43;;;16.00;99.90;;;;;;5107354;28;20775;-37
2021/08/30 04:21:34;;;;;;;21.17;18.33;;;16.10;99.90;;;;;;5094146;27;20486;-36
2021/08/30 04:24:00;;;;;;;21.77;17.40;;;16.00;99.90;;;;;;5127611;27;20186;-37
2021/08/30 04:26:25;;;;;;;20.20;17.50;;;16.00;99.90;;;;;;5126706;27;20759;-37
2021/08/30 04:28:51;;;;;;;19.07;16.50;;;16.00;99.90;;;;;;5109089;27;20694;-36
2021/08/30 04:31:17;;;;;;;23.60;18.47;;;16.00;99.90;;;;;;5127710;27;20220;-37
2021/08/30 04:33:42;;;;;;;20.97;18.50;;;16.00;99.90;;;;;;5127616;27;20187;-37
2021/08/30 04:36:09;;;;;;;22.90;17.00;;;16.00;99.90;;;;;;5097609;28;20198;-36
2021/08/30 04:38:35;;;;;;;20.53;18.23;;;16.10;99.90;;;;;;5125708;27;20183;-37
2021/08/30 04:41:00;;;;;;;23.17;18.70;;;16.10;99.90;;;;;;5127032;27;20471;-36
2021/08/30 04:43:26;;;;;;;21.47;18.53;;;16.00;99.90;;;;;;5127148;27;20697;-37
2021/08/30 04:45:52;;;;;;;21.40;19.20;;;16.00;99.90;;;;;;5126622;27;20235;-36
2021/08/30 04:48:17;;;;;;;22.07;19.70;;;16.00;99.90;;;;;;5126828;27;20294;-36
2021/08/30 04:50:43;;;;;;;20.73;16.83;;;16.00;99.90;;;;;;5123365;27;20194;-36
2021/08/30 04:53:09;;;;;;;22.20;19.63;;;16.10;99.90;;;;;;5123810;27;20557;-36
2021/08/30 04:55:36;;;;;;;23.30;19.73;;;16.00;99.90;;;;;;5121906;27;20782;-36
2021/08/30 04:58:04;;;;;;;22.87;18.80;;;16.10;99.90;;;;;;5128725;27;20601;-36
2021/08/30 05:00:29;;;;;;;20.90;17.70;;;16.00;99.90;;;;;;5127702;27;20468;-37
2021/08/30 05:02:55;;;;;;;23.40;18.77;;;16.00;99.90;;;;;;5126684;27;20428;-36
2021/08/30 05:05:21;;;;;;;20.97;18.63;;;16.10;99.90;;;;;;5126233;27;20278;-37
2021/08/30 05:07:46;;;;;;;21.17;18.63;;;16.10;99.90;;;;;;5119567;27;20217;-36
2021/08/30 05:10:13;;;;;;;20.90;18.70;;;16.10;99.90;;;;;;5126629;27;20210;-36
2021/08/30 05:12:39;;;;;;;22.00;19.20;;;16.10;99.90;;;;;;5126369;27;20198;-36
2021/08/30 05:15:06;;;;;;;20.20;18.10;;;16.00;99.90;;;;;;5123092;27;21200;-36
2021/08/30 05:17:31;;;;;;;22.30;19.20;;;16.00;99.90;;;;;;5089385;28;20618;-36
2021/08/30 05:19:57;;;;;;;21.70;19.40;;;16.00;99.90;;;;;;5110106;28;20488;-36
2021/08/30 05:22:23;;;;;;;29.23;19.37;;;16.00;99.90;;;;;;5115886;28;20187;-36
2021/08/30 05:24:49;;;;;;;22.57;19.53;;;16.00;99.90;;;;;;5126192;28;20390;-36
2021/08/30 05:27:15;;;;;;;19.83;17.63;;;16.10;99.90;;;;;;5126621;27;20420;-36
2021/08/30 05:29:41;;;;;;;23.60;19.80;;;16.10;99.90;;;;;;5130425;27;20980;-36
2021/08/30 05:32:07;;;;;;;25.27;20.00;;;16.10;99.90;;;;;;5131103;27;20556;-37
2021/08/30 05:34:32;;;;;;;21.83;19.40;;;16.10;99.90;;;;;;5130364;27;20205;-36
2021/08/30 05:36:58;;;;;;;23.20;20.27;;;16.10;99.90;;;;;;5124638;27;20436;-36
2021/08/30 05:39:23;;;;;;;23.63;20.20;;;16.10;99.90;;;;;;5128960;27;20214;-36
2021/08/30 05:41:49;;;;;;;24.90;20.60;;;16.10;99.90;;;;;;5130364;27;20197;-36
2021/08/30 05:44:15;;;;;;;24.53;19.80;;;16.10;99.90;;;;;;5117731;27;20183;-36
2021/08/30 05:46:41;;;;;;;22.93;19.93;;;16.10;99.90;;;;;;5129744;27;20613;-36
2021/08/30 05:49:06;;;;;;;26.67;21.13;;;16.10;99.90;;;;;;5113785;27;20234;-36
2021/08/30 05:51:32;;;;;;;22.67;20.17;;;16.10;99.90;;;;;;5104489;27;20187;-37
2021/08/30 05:53:58;;;;;;;21.57;18.97;;;16.10;99.90;;;;;;5131934;27;20194;-36
2021/08/30 05:56:23;;;;;;;24.03;20.83;;;16.10;99.90;;;;;;5131339;27;20190;-36
2021/08/30 05:58:49;;;;;;;24.43;21.77;;;16.10;99.90;;;;;;5129999;27;20197;-36
2021/08/30 06:01:15;;;;;;;22.63;19.67;;;16.20;99.90;;;;;;5130067;27;20571;-36
2021/08/30 06:03:41;;;;;;;22.47;19.73;;;16.20;99.90;;;;;;5130408;27;20211;-36
2021/08/30 06:06:06;;;;;;;26.77;21.50;;;16.20;99.90;;;;;;5124450;27;20316;-35
2021/08/30 06:08:32;;;;;;;24.87;20.33;;;16.20;99.90;;;;;;5123409;27;20202;-36
2021/08/30 06:11:00;;;;;;;24.43;20.30;;;16.20;99.90;;;;;;5102856;28;20180;-36
2021/08/30 06:13:26;;;;;;;25.80;20.80;;;16.20;99.90;;;;;;5099449;27;20975;-36
2021/08/30 06:15:52;;;;;;;26.63;21.07;;;16.20;99.90;;;;;;5129057;27;20413;-36
2021/08/30 06:18:18;;;;;;;24.30;20.40;;;16.20;99.90;;;;;;5127776;27;20909;-36
2021/08/30 06:20:44;;;;;;;27.37;22.43;;;16.20;99.90;;;;;;5127683;27;20483;-36
2021/08/30 06:23:09;;;;;;;26.40;22.67;;;16.30;99.90;;;;;;5119921;27;20950;-36
2021/08/30 06:25:35;;;;;;;29.23;23.13;;;16.30;99.90;;;;;;5124860;27;20508;-36
2021/08/30 06:28:01;;;;;;;27.90;22.30;;;16.30;99.90;;;;;;5127995;27;20545;-36
2021/08/30 06:30:27;;;;;;;23.93;21.20;;;16.30;99.90;;;;;;5128722;27;20431;-35
2021/08/30 06:32:53;;;;;;;28.00;22.83;;;16.30;99.90;;;;;;5128430;27;20421;-36
2021/08/30 06:35:19;;;;;;;30.83;23.67;;;16.30;99.90;;;;;;5127853;27;20425;-36
2021/08/30 06:37:45;;;;;;;28.80;22.03;;;16.30;99.90;;;;;;5123180;27;20179;-36
2021/08/30 06:40:12;;;;;;;27.67;23.73;;;16.40;99.90;;;;;;5127771;27;21056;-36
2021/08/30 06:42:37;;;;;;;26.97;23.00;;;16.40;99.90;;;;;;5126252;27;20585;-37
2021/08/30 06:45:04;;;;;;;25.57;21.20;;;16.30;99.90;;;;;;5128734;27;20413;-36
2021/08/30 06:47:30;;;;;;;28.03;23.07;;;16.30;99.90;;;;;;5128492;27;20777;-36
2021/08/30 06:49:56;;;;;;;24.90;22.20;;;16.30;99.90;;;;;;5128167;27;20435;-36
2021/08/30 06:52:22;;;;;;;33.03;22.43;;;16.40;99.90;;;;;;5122229;27;20458;-36
2021/08/30 06:54:48;;;;;;;28.30;23.13;;;16.40;99.90;;;;;;5127077;27;20202;-37
2021/08/30 06:57:14;;;;;;;26.50;23.53;;;16.40;99.90;;;;;;5125158;27;20417;-36
2021/08/30 06:59:39;;;;;;;26.00;21.43;;;16.40;99.90;;;;;;5125496;27;20898;-36
2021/08/30 07:02:06;;;;;;;26.83;23.93;;;16.40;99.90;;;;;;5128636;27;20432;-36
2021/08/30 07:04:31;;;;;;;30.50;23.87;;;16.40;99.90;;;;;;5129038;27;20298;-36
2021/08/30 07:06:57;;;;;;;29.57;24.90;;;16.50;99.90;;;;;;5124954;27;20678;-36
2021/08/30 07:09:24;;;;;;;29.00;23.47;;;16.40;99.90;;;;;;5129094;27;20439;-36
2021/08/30 07:11:50;;;;;;;34.33;24.60;;;16.40;99.90;;;;;;5128287;27;20565;-36
2021/08/30 07:14:16;;;;;;;28.90;23.00;;;16.40;99.90;;;;;;5119118;27;20426;-36
2021/08/30 07:16:42;;;;;;;29.43;23.03;;;16.50;99.90;;;;;;5124993;27;20419;-36
2021/08/30 07:19:08;;;;;;;27.30;23.03;;;16.50;99.90;;;;;;5128448;27;20461;-36
2021/08/30 07:21:34;;;;;;;25.87;23.03;;;16.50;99.90;;;;;;5118308;27;20429;-36
2021/08/30 07:23:59;;;;;;;32.00;24.83;;;16.50;99.90;;;;;;5111467;27;20189;-36
2021/08/30 07:26:25;;;;;;;26.20;22.53;;;16.60;99.90;;;;;;5122043;27;20183;-36
2021/08/30 07:28:51;;;;;;;27.13;24.23;;;16.60;99.90;;;;;;5128506;27;20179;-37
2021/08/30 07:31:17;;;;;;;29.93;23.77;;;16.60;99.90;;;;;;5128449;27;20272;-36
2021/08/30 07:33:43;;;;;;;26.63;23.73;;;16.70;99.90;;;;;;5128319;27;20171;-37
2021/08/30 07:36:09;;;;;;;26.67;21.30;;;16.70;99.90;;;;;;5127985;27;20416;-36
2021/08/30 07:38:35;;;;;;;27.40;22.70;;;16.70;99.90;;;;;;5120950;27;20431;-36
2021/08/30 07:41:01;;;;;;;28.13;23.77;;;16.70;99.90;;;;;;5127943;27;20217;-36
2021/08/30 07:43:26;;;;;;;28.43;23.20;;;16.70;99.90;;;;;;5128306;27;20740;-37
2021/08/30 07:45:52;;;;;;;26.03;22.37;;;16.60;99.90;;;;;;5126805;27;20511;-36
2021/08/30 07:48:18;;;;;;;25.83;22.97;;;16.70;99.90;;;;;;5128262;27;20228;-36
2021/08/30 07:50:44;;;;;;;27.40;23.17;;;16.70;99.90;;;;;;5126854;27;20191;-36
2021/08/30 07:53:09;;;;;;;27.00;23.87;;;16.70;99.90;;;;;;5125100;27;20175;-36
2021/08/30 07:55:35;;;;;;;24.40;21.50;;;16.80;99.90;;;;;;5124852;27;20483;-36
2021/08/30 07:58:03;;;;;;;26.70;22.53;;;16.70;99.90;;;;;;5127712;27;20188;-36
2021/08/30 08:00:28;;;;;;;24.97;22.20;;;16.70;99.90;;;;;;5127267;27;20485;-37
2021/08/30 08:02:54;;;;;;;26.13;20.93;;;16.80;99.90;;;;;;5127943;27;21077;-36
2021/08/30 08:05:20;;;;;;;25.10;22.40;;;16.80;99.90;;;;;;5127813;27;20674;-37
2021/08/30 08:07:45;;;;;;;28.60;22.97;;;16.80;99.90;;;;;;5116457;27;20677;-36
2021/08/30 08:10:11;;;;;;;26.30;23.17;;;16.90;99.90;;;;;;5124985;27;20191;-37
2021/08/30 08:12:37;;;;;;;26.43;21.90;;;16.90;99.90;;;;;;5123862;27;20187;-36
2021/08/30 08:15:04;;;;;;;25.20;22.37;;;16.90;99.90;;;;;;5112671;27;20196;-36
2021/08/30 08:17:30;;;;;;;24.87;21.50;;;17.00;99.90;;;;;;5126036;27;20190;-36
2021/08/30 08:19:55;;;;;;;23.77;21.23;;;17.00;99.90;;;;;;5127461;27;20545;-36
2021/08/30 08:22:21;;;;;;;26.07;22.33;;;17.00;99.90;;;;;;5118949;27;20275;-36
2021/08/30 08:24:47;;;;;;;28.00;23.30;;;17.10;99.90;;;;;;5124560;27;20218;-38
2021/08/30 08:27:12;;;;;;;26.47;22.83;;;17.20;99.90;;;;;;5126611;27;20591;-36
2021/08/30 08:29:38;;;;;;;26.47;21.80;;;17.30;99.90;;;;;;5127429;27;20186;-36
2021/08/30 08:32:04;;;;;;;24.67;21.13;;;17.40;99.90;;;;;;5127428;27;20282;-36
2021/08/30 08:34:30;;;;;;;23.83;19.90;;;17.50;99.90;;;;;;5127043;27;20703;-37
2021/08/30 08:37:02;;;;;;;24.80;21.33;;;17.60;99.90;;;;;;5122387;27;20437;-37
2021/08/30 08:39:27;;;;;;;22.20;19.43;;;17.60;99.90;;;;;;5122094;27;20195;-36
2021/08/30 08:41:53;;;;;;;22.97;19.83;;;17.70;99.90;;;;;;5108636;27;20998;-36
2021/08/30 08:44:19;;;;;;;25.60;20.83;;;17.60;99.90;;;;;;5126449;27;20175;-36
2021/08/30 08:46:44;;;;;;;20.90;18.60;;;17.60;99.90;;;;;;5126740;27;20278;-36
2021/08/30 08:49:10;;;;;;;21.03;18.80;;;17.60;99.90;;;;;;5126756;27;20327;-37
2021/08/30 08:51:36;;;;;;;19.93;17.83;;;17.50;99.90;;;;;;5127166;27;20261;-37
2021/08/30 08:54:06;;;;;;;23.07;19.50;;;17.50;99.90;;;;;;5111899;27;20186;-36
2021/08/30 08:56:32;;;;;;;19.50;17.27;;;17.50;99.90;;;;;;5126202;27;20445;-37
2021/08/30 08:58:57;;;;;;;19.37;17.37;;;17.60;99.90;;;;;;5126688;27;21124;-36
2021/08/30 09:01:25;;;;;;;22.00;19.13;;;17.50;99.90;;;;;;5126956;27;20186;-36
2021/08/30 09:03:55;;;;;;;21.63;19.43;;;17.50;99.90;;;;;;5126465;27;20265;-36
2021/08/30 09:06:29;;;;;;;20.37;18.27;;;17.60;99.90;;;;;;5126008;27;20501;-36
2021/08/30 09:09:06;;;;;;;23.47;18.40;;;17.70;99.90;;;;;;5114749;27;20834;-36
2021/08/30 09:11:43;;;;;;;22.20;19.03;;;17.90;99.90;;;;;;5121689;27;20499;-37
2021/08/30 09:14:27;;;;;;;21.77;18.00;;;17.90;99.90;;;;;;5113794;27;20428;-36
2021/08/30 09:17:07;;;;;;;19.43;17.53;;;18.00;99.90;;;;;;5117520;28;20416;-36
2021/08/30 09:19:34;;;;;;;18.37;16.10;;;18.00;99.90;;;;;;5126164;28;20913;-36
2021/08/30 09:22:02;;;;;;;18.57;16.20;;;18.00;99.90;;;;;;5125095;28;20775;-37
2021/08/30 09:24:29;;;;;;;19.47;17.47;;;18.00;99.90;;;;;;5101349;28;20429;-36
2021/08/30 09:27:03;;;;;;;19.53;17.37;;;18.00;99.90;;;;;;5125535;28;20416;-36
2021/08/30 09:29:32;;;;;;;18.30;16.40;;;17.90;99.90;;;;;;5126581;28;20416;-37
2021/08/30 09:32:01;;;;;;;19.17;17.13;;;17.90;99.90;;;;;;5126268;28;20420;-37
2021/08/30 09:34:36;;;;;;;19.77;16.80;;;17.90;99.90;;;;;;5126078;28;21060;-36
2021/08/30 09:37:11;;;;;;;18.33;16.27;;;17.80;99.90;;;;;;5125271;28;20416;-37
2021/08/30 09:40:09;;;;;;;18.93;16.30;;;17.80;99.90;;;;;;5117016;28;20775;-36
2021/08/30 09:42:40;;;;;;;17.30;15.60;;;17.80;99.90;;;;;;5119460;28;20624;-38
2021/08/30 09:45:22;;;;;;;18.07;16.20;;;17.80;99.90;;;;;;5126395;28;20500;-36
2021/08/30 09:47:58;;;;;;;17.90;16.10;;;18.00;99.90;;;;;;5125725;28;20409;-37
2021/08/30 09:50:36;;;;;;;19.40;17.50;;;18.20;99.90;;;;;;5126199;28;20477;-36
2021/08/30 09:53:03;;;;;;;19.10;16.63;;;18.20;99.90;;;;;;5119944;28;20474;-37
2021/08/30 09:55:30;;;;;;;17.67;15.90;;;18.30;99.90;;;;;;5121485;28;20717;-36
2021/08/30 09:57:56;;;;;;;20.50;18.30;;;18.30;99.90;;;;;;5126040;28;20858;-37
2021/08/30 10:00:23;;;;;;;19.10;17.10;;;18.40;99.90;;;;;;5126083;28;20460;-36
2021/08/30 10:02:53;;;;;;;19.97;16.87;;;18.40;99.90;;;;;;5126586;28;20913;-37
2021/08/30 10:05:20;;;;;;;19.60;17.63;;;18.40;99.90;;;;;;5126010;28;20413;-36
2021/08/30 10:07:47;;;;;;;18.97;16.97;;;18.40;99.90;;;;;;5120384;28;20449;-36
2021/08/30 10:10:17;;;;;;;20.77;18.57;;;18.40;99.90;;;;;;5118693;28;20520;-36
2021/08/30 10:12:43;;;;;;;17.93;15.90;;;18.50;99.90;;;;;;5126197;28;20409;-36
2021/08/30 10:15:11;;;;;;;18.50;16.60;;;18.60;99.90;;;;;;5110937;28;20439;-36
2021/08/30 10:17:44;;;;;;;18.63;16.77;;;18.60;99.90;;;;;;5123429;27;20416;-37
2021/08/30 10:20:21;;;;;;;19.67;17.57;;;18.70;99.90;;;;;;5129393;27;20784;-37
2021/08/30 10:23:06;;;;;;;20.90;18.10;;;18.70;99.90;;;;;;5126439;27;20439;-37
2021/08/30 10:25:34;;;;;;;18.13;16.33;;;18.70;99.90;;;;;;5124486;27;20409;-36
2021/08/30 10:28:04;;;;;;;19.00;16.80;;;18.60;99.90;;;;;;5124926;27;20413;-37
2021/08/30 10:30:32;;;;;;;19.00;17.07;;;18.60;99.90;;;;;;5129457;27;20828;-37
2021/08/30 10:32:59;;;;;;;18.10;16.20;;;18.70;99.90;;;;;;5129462;27;20773;-36
2021/08/30 10:35:30;;;;;;;16.23;14.63;;;18.70;99.90;;;;;;5129855;27;20978;-36
2021/08/30 10:38:03;;;;;;;18.03;16.13;;;18.80;99.90;;;;;;5124697;27;20438;-36
2021/08/30 10:40:32;;;;;;;18.63;16.70;;;18.80;99.90;;;;;;5123868;27;20452;-36
2021/08/30 10:43:10;;;;;;;17.90;15.17;;;18.80;99.90;;;;;;5120089;27;20500;-37
2021/08/30 10:45:42;;;;;;;17.30;14.47;;;18.80;99.90;;;;;;5128932;27;20427;-36
2021/08/30 10:48:17;;;;;;;17.37;15.57;;;18.90;99.90;;;;;;5129061;27;20421;-36
2021/08/30 10:50:47;;;;;;;16.53;14.93;;;19.00;99.90;;;;;;5129867;27;21205;-36
2021/08/30 10:53:19;;;;;;;17.50;15.57;;;19.10;99.90;;;;;;5123885;27;20425;-36
2021/08/30 10:55:48;;;;;;;15.87;14.17;;;19.10;99.90;;;;;;5125262;27;20616;-36
2021/08/30 10:58:21;;;;;;;15.87;14.27;;;19.20;99.90;;;;;;5128843;27;20451;-36
2021/08/30 11:00:50;;;;;;;16.57;14.80;;;19.30;99.90;;;;;;5129028;27;20456;-37
2021/08/30 11:03:32;;;;;;;17.53;15.63;;;19.30;99.90;;;;;;5128697;27;20463;-36
2021/08/30 11:06:03;;;;;;;15.90;14.30;;;19.40;99.90;;;;;;5128095;27;20416;-36
2021/08/30 11:08:29;;;;;;;14.90;13.40;;;19.40;99.90;;;;;;5121826;27;20560;-36
2021/08/30 11:11:12;;;;;;;15.70;14.00;;;19.50;99.90;;;;;;5120246;27;20978;-37
2021/08/30 11:13:40;;;;;;;15.13;12.63;;;19.70;99.90;;;;;;5124813;27;20451;-36
2021/08/30 11:16:19;;;;;;;15.77;14.07;;;19.70;99.90;;;;;;5106640;28;20465;-36
2021/08/30 11:18:59;;;;;;;14.10;12.83;;;19.70;99.90;;;;;;5127824;27;20421;-36
2021/08/30 11:21:38;;;;;;;16.53;13.60;;;19.80;99.90;;;;;;5128316;27;20435;-36
2021/08/30 11:24:07;;;;;;;16.23;12.67;;;19.70;99.90;;;;;;5119615;27;20416;-36
2021/08/30 11:26:35;;;;;;;13.53;12.13;;;19.60;99.90;;;;;;5123938;27;21179;-37
2021/08/30 11:29:07;;;;;;;13.57;11.23;;;19.50;99.90;;;;;;5128069;27;20416;-36
2021/08/30 11:31:39;;;;;;;12.47;11.17;;;19.60;99.90;;;;;;5127981;27;20411;-37
2021/08/30 11:34:06;;;;;;;13.53;12.13;;;19.70;99.90;;;;;;5128322;27;20415;-36
2021/08/30 11:36:42;;;;;;;13.00;11.60;;;19.80;99.90;;;;;;5127514;27;20439;-36
2021/08/30 11:39:10;;;;;;;13.10;11.90;;;19.90;99.90;;;;;;5121888;27;20416;-36
2021/08/30 11:41:38;;;;;;;12.10;10.90;;;20.10;99.90;;;;;;5123660;27;20477;-37
2021/08/30 11:44:05;;;;;;;12.87;11.57;;;20.10;99.90;;;;;;5128112;27;20532;-36
2021/08/30 11:46:44;;;;;;;12.67;11.33;;;20.10;99.90;;;;;;5127533;27;21020;-37
2021/08/30 11:49:10;;;;;;;11.57;10.37;;;20.10;99.90;;;;;;5127835;27;20421;-36
2021/08/30 11:51:40;;;;;;;11.10;10.10;;;20.00;99.90;;;;;;5127955;27;20428;-36
2021/08/30 11:54:13;;;;;;;11.90;10.70;;;20.10;99.90;;;;;;5120476;27;20335;-36
2021/08/30 11:56:39;;;;;;;11.30;10.10;;;20.20;99.90;;;;;;5123736;27;20440;-36
2021/08/30 11:59:04;;;;;;;11.60;10.47;;;20.30;99.90;;;;;;5122657;27;20934;-37
2021/08/30 12:01:37;;;;;;;11.87;10.77;;;20.40;99.90;;;;;;5127896;27;20210;-36
2021/08/30 12:04:17;;;;;;;11.97;10.00;;;20.50;99.90;;;;;;5127552;27;20186;-36
2021/08/30 12:06:55;;;;;;;11.00;9.90;;;20.50;99.90;;;;;;5109434;27;20979;-37
2021/08/30 12:09:21;;;;;;;10.90;9.90;;;20.50;99.90;;;;;;5101142;28;20449;-37
2021/08/30 12:11:52;;;;;;;11.80;10.10;;;20.50;99.90;;;;;;5124657;27;20440;-37
2021/08/30 12:14:23;;;;;;;10.90;9.90;;;20.50;99.90;;;;;;5117250;27;20418;-36
2021/08/30 12:16:57;;;;;;;9.20;8.40;;;20.40;99.90;;;;;;5104933;28;20426;-37
2021/08/30 12:19:25;;;;;;;9.90;8.63;;;20.40;99.90;;;;;;5118198;27;20467;-36
2021/08/30 12:21:51;;;;;;;10.83;9.70;;;20.40;99.90;;;;;;5127532;27;20413;-36
2021/08/30 12:24:21;;;;;;;10.83;9.73;;;20.30;99.90;;;;;;5119727;27;20445;-36
2021/08/30 12:26:48;;;;;;;10.00;8.70;;;20.20;99.90;;;;;;5125460;27;20179;-36
2021/08/30 12:29:17;;;;;;;10.43;9.40;;;20.10;99.90;;;;;;5126920;27;20619;-37
2021/08/30 12:31:49;;;;;;;10.47;8.77;;;20.10;99.90;;;;;;5127549;27;20409;-36
2021/08/30 12:34:15;;;;;;;11.27;10.07;;;20.00;99.90;;;;;;5127032;27;20413;-37
2021/08/30 12:36:42;;;;;;;11.03;10.03;;;19.90;99.90;;;;;;5126234;27;20432;-36